sensor_id;sensor_type;location;lat;lon;timestamp;P1;durP1;ratioP1;P2;durP2;ratioP2
27209;SDS011;14721;42.668;23.386;2023-04-08T00:02:07;16.00;;;8.87;;
27209;SDS011;14721;42.668;23.386;2023-04-08T00:04:32;17.63;;;8.67;;
27209;SDS011;14721;42.668;23.386;2023-04-08T00:06:58;12.50;;;8.00;;
27209;SDS011;14721;42.668;23.386;2023-04-08T00:09:23;16.17;;;8.53;;
27209;SDS011;14721;42.668;23.386;2023-04-08T00:11:49;13.70;;;7.57;;
27209;SDS011;14721;42.668;23.386;2023-04-08T00:14:14;16.03;;;7.53;;
27209;SDS011;14721;42.668;23.386;2023-04-08T00:16:39;11.20;;;7.23;;
27209;SDS011;14721;42.668;23.386;2023-04-08T00:19:05;15.77;;;7.80;;
27209;SDS011;14721;42.668;23.386;2023-04-08T00:21:30;20.23;;;9.70;;
27209;SDS011;14721;42.668;23.386;2023-04-08T00:23:56;15.13;;;8.13;;
27209;SDS011;14721;42.668;23.386;2023-04-08T00:26:22;17.03;;;8.00;;
27209;SDS011;14721;42.668;23.386;2023-04-08T00:28:47;15.13;;;7.43;;
27209;SDS011;14721;42.668;23.386;2023-04-08T00:31:13;13.90;;;8.10;;
27209;SDS011;14721;42.668;23.386;2023-04-08T00:33:43;14.17;;;7.80;;
27209;SDS011;14721;42.668;23.386;2023-04-08T00:36:09;16.33;;;8.50;;
27209;SDS011;14721;42.668;23.386;2023-04-08T00:38:35;16.83;;;9.20;;
27209;SDS011;14721;42.668;23.386;2023-04-08T00:41:00;19.97;;;11.60;;
27209;SDS011;14721;42.668;23.386;2023-04-08T00:43:26;26.33;;;12.63;;
27209;SDS011;14721;42.668;23.386;2023-04-08T00:45:59;26.13;;;12.73;;
27209;SDS011;14721;42.668;23.386;2023-04-08T00:48:24;23.73;;;13.47;;
27209;SDS011;14721;42.668;23.386;2023-04-08T00:50:56;27.20;;;12.70;;
27209;SDS011;14721;42.668;23.386;2023-04-08T00:53:31;27.00;;;13.97;;
27209;SDS011;14721;42.668;23.386;2023-04-08T00:55:57;25.37;;;12.53;;
27209;SDS011;14721;42.668;23.386;2023-04-08T00:58:24;25.17;;;12.83;;
27209;SDS011;14721;42.668;23.386;2023-04-08T01:01:04;26.73;;;13.43;;
27209;SDS011;14721;42.668;23.386;2023-04-08T01:03:41;24.73;;;12.90;;
27209;SDS011;14721;42.668;23.386;2023-04-08T01:06:12;24.20;;;12.40;;
27209;SDS011;14721;42.668;23.386;2023-04-08T01:08:45;26.23;;;14.40;;
27209;SDS011;14721;42.668;23.386;2023-04-08T01:11:13;20.73;;;11.80;;
27209;SDS011;14721;42.668;23.386;2023-04-08T01:13:39;21.83;;;11.50;;
27209;SDS011;14721;42.668;23.386;2023-04-08T01:16:14;32.57;;;12.17;;
27209;SDS011;14721;42.668;23.386;2023-04-08T01:18:42;22.23;;;11.77;;
27209;SDS011;14721;42.668;23.386;2023-04-08T01:21:09;22.67;;;12.20;;
27209;SDS011;14721;42.668;23.386;2023-04-08T01:24:19;22.00;;;12.50;;
27209;SDS011;14721;42.668;23.386;2023-04-08T01:26:35;22.63;;;11.10;;
27209;SDS011;14721;42.668;23.386;2023-04-08T01:29:02;18.83;;;12.00;;
27209;SDS011;14721;42.668;23.386;2023-04-08T01:31:29;20.20;;;12.10;;
27209;SDS011;14721;42.668;23.386;2023-04-08T01:33:56;18.93;;;10.90;;
27209;SDS011;14721;42.668;23.386;2023-04-08T01:36:28;25.13;;;11.57;;
27209;SDS011;14721;42.668;23.386;2023-04-08T01:38:57;25.80;;;11.27;;
27209;SDS011;14721;42.668;23.386;2023-04-08T01:41:27;19.47;;;11.60;;
27209;SDS011;14721;42.668;23.386;2023-04-08T01:43:54;19.27;;;10.47;;
27209;SDS011;14721;42.668;23.386;2023-04-08T01:46:25;20.60;;;12.20;;
27209;SDS011;14721;42.668;23.386;2023-04-08T01:49:01;26.60;;;11.07;;
27209;SDS011;14721;42.668;23.386;2023-04-08T01:51:36;22.83;;;11.53;;
27209;SDS011;14721;42.668;23.386;2023-04-08T01:54:03;20.73;;;11.30;;
27209;SDS011;14721;42.668;23.386;2023-04-08T01:56:34;18.20;;;11.13;;
27209;SDS011;14721;42.668;23.386;2023-04-08T01:59:05;18.97;;;9.93;;
27209;SDS011;14721;42.668;23.386;2023-04-08T02:01:38;19.00;;;9.57;;
27209;SDS011;14721;42.668;23.386;2023-04-08T02:04:06;15.43;;;9.33;;
27209;SDS011;14721;42.668;23.386;2023-04-08T02:06:32;17.03;;;9.07;;
27209;SDS011;14721;42.668;23.386;2023-04-08T02:08:58;18.20;;;9.00;;
27209;SDS011;14721;42.668;23.386;2023-04-08T02:11:25;15.80;;;9.17;;
27209;SDS011;14721;42.668;23.386;2023-04-08T02:13:52;16.30;;;9.60;;
27209;SDS011;14721;42.668;23.386;2023-04-08T02:16:22;15.87;;;9.17;;
27209;SDS011;14721;42.668;23.386;2023-04-08T02:19:13;15.57;;;9.33;;
27209;SDS011;14721;42.668;23.386;2023-04-08T02:21:46;12.23;;;7.27;;
27209;SDS011;14721;42.668;23.386;2023-04-08T02:24:16;16.27;;;6.97;;
27209;SDS011;14721;42.668;23.386;2023-04-08T02:26:43;13.00;;;7.90;;
27209;SDS011;14721;42.668;23.386;2023-04-08T02:29:15;14.20;;;8.43;;
27209;SDS011;14721;42.668;23.386;2023-04-08T02:31:44;19.43;;;8.00;;
27209;SDS011;14721;42.668;23.386;2023-04-08T02:34:11;14.03;;;8.30;;
27209;SDS011;14721;42.668;23.386;2023-04-08T02:36:39;18.77;;;9.20;;
27209;SDS011;14721;42.668;23.386;2023-04-08T02:39:06;16.70;;;9.33;;
27209;SDS011;14721;42.668;23.386;2023-04-08T02:41:35;16.77;;;10.30;;
27209;SDS011;14721;42.668;23.386;2023-04-08T02:44:02;19.60;;;9.80;;
27209;SDS011;14721;42.668;23.386;2023-04-08T02:46:30;18.03;;;9.87;;
27209;SDS011;14721;42.668;23.386;2023-04-08T02:48:59;24.40;;;11.03;;
27209;SDS011;14721;42.668;23.386;2023-04-08T02:51:24;23.13;;;12.20;;
27209;SDS011;14721;42.668;23.386;2023-04-08T02:53:50;24.60;;;12.07;;
27209;SDS011;14721;42.668;23.386;2023-04-08T02:56:15;20.20;;;11.80;;
27209;SDS011;14721;42.668;23.386;2023-04-08T02:58:44;21.83;;;11.10;;
27209;SDS011;14721;42.668;23.386;2023-04-08T03:01:10;24.77;;;11.90;;
27209;SDS011;14721;42.668;23.386;2023-04-08T03:03:35;28.33;;;12.53;;
27209;SDS011;14721;42.668;23.386;2023-04-08T03:06:01;27.33;;;11.20;;
27209;SDS011;14721;42.668;23.386;2023-04-08T03:08:26;27.30;;;12.83;;
27209;SDS011;14721;42.668;23.386;2023-04-08T03:10:52;21.80;;;11.60;;
27209;SDS011;14721;42.668;23.386;2023-04-08T03:13:26;24.77;;;12.03;;
27209;SDS011;14721;42.668;23.386;2023-04-08T03:15:53;29.77;;;12.37;;
27209;SDS011;14721;42.668;23.386;2023-04-08T03:18:19;24.20;;;12.33;;
27209;SDS011;14721;42.668;23.386;2023-04-08T03:20:47;21.13;;;12.10;;
27209;SDS011;14721;42.668;23.386;2023-04-08T03:23:12;26.10;;;13.00;;
27209;SDS011;14721;42.668;23.386;2023-04-08T03:25:39;26.33;;;13.77;;
27209;SDS011;14721;42.668;23.386;2023-04-08T03:28:16;26.80;;;13.30;;
27209;SDS011;14721;42.668;23.386;2023-04-08T03:30:49;26.40;;;13.70;;
27209;SDS011;14721;42.668;23.386;2023-04-08T03:33:14;25.87;;;14.43;;
27209;SDS011;14721;42.668;23.386;2023-04-08T03:35:43;26.27;;;13.00;;
27209;SDS011;14721;42.668;23.386;2023-04-08T03:38:08;30.43;;;15.30;;
27209;SDS011;14721;42.668;23.386;2023-04-08T03:40:34;29.27;;;13.80;;
27209;SDS011;14721;42.668;23.386;2023-04-08T03:43:05;25.67;;;14.63;;
27209;SDS011;14721;42.668;23.386;2023-04-08T03:45:32;27.10;;;14.50;;
27209;SDS011;14721;42.668;23.386;2023-04-08T03:47:58;26.93;;;13.43;;
27209;SDS011;14721;42.668;23.386;2023-04-08T03:50:23;24.27;;;13.97;;
27209;SDS011;14721;42.668;23.386;2023-04-08T03:52:49;27.50;;;13.80;;
27209;SDS011;14721;42.668;23.386;2023-04-08T03:55:15;28.07;;;13.67;;
27209;SDS011;14721;42.668;23.386;2023-04-08T03:57:42;25.13;;;13.77;;
27209;SDS011;14721;42.668;23.386;2023-04-08T04:00:09;33.27;;;14.60;;
27209;SDS011;14721;42.668;23.386;2023-04-08T04:02:38;30.30;;;15.63;;
27209;SDS011;14721;42.668;23.386;2023-04-08T04:05:04;33.57;;;15.27;;
27209;SDS011;14721;42.668;23.386;2023-04-08T04:07:30;28.90;;;14.03;;
27209;SDS011;14721;42.668;23.386;2023-04-08T04:09:55;26.63;;;13.77;;
27209;SDS011;14721;42.668;23.386;2023-04-08T04:12:21;28.70;;;13.27;;
27209;SDS011;14721;42.668;23.386;2023-04-08T04:14:47;29.27;;;14.03;;
27209;SDS011;14721;42.668;23.386;2023-04-08T04:17:13;23.53;;;13.70;;
27209;SDS011;14721;42.668;23.386;2023-04-08T04:19:38;28.17;;;14.87;;
27209;SDS011;14721;42.668;23.386;2023-04-08T04:22:09;27.20;;;12.90;;
27209;SDS011;14721;42.668;23.386;2023-04-08T04:24:37;32.40;;;16.30;;
27209;SDS011;14721;42.668;23.386;2023-04-08T04:27:02;25.47;;;12.30;;
27209;SDS011;14721;42.668;23.386;2023-04-08T04:29:32;20.43;;;11.17;;
27209;SDS011;14721;42.668;23.386;2023-04-08T04:31:58;20.27;;;10.13;;
27209;SDS011;14721;42.668;23.386;2023-04-08T04:34:23;16.33;;;9.63;;
27209;SDS011;14721;42.668;23.386;2023-04-08T04:36:49;19.37;;;10.63;;
27209;SDS011;14721;42.668;23.386;2023-04-08T04:39:23;21.83;;;11.70;;
27209;SDS011;14721;42.668;23.386;2023-04-08T04:41:52;20.67;;;10.30;;
27209;SDS011;14721;42.668;23.386;2023-04-08T04:44:17;18.90;;;9.33;;
27209;SDS011;14721;42.668;23.386;2023-04-08T04:46:45;12.97;;;7.37;;
27209;SDS011;14721;42.668;23.386;2023-04-08T04:49:14;13.40;;;7.93;;
27209;SDS011;14721;42.668;23.386;2023-04-08T04:51:47;16.23;;;8.37;;
27209;SDS011;14721;42.668;23.386;2023-04-08T04:54:15;16.93;;;8.57;;
27209;SDS011;14721;42.668;23.386;2023-04-08T04:56:43;14.63;;;7.77;;
27209;SDS011;14721;42.668;23.386;2023-04-08T04:59:08;12.83;;;7.93;;
27209;SDS011;14721;42.668;23.386;2023-04-08T05:01:34;15.13;;;8.17;;
27209;SDS011;14721;42.668;23.386;2023-04-08T05:04:00;17.40;;;8.53;;
27209;SDS011;14721;42.668;23.386;2023-04-08T05:06:25;14.27;;;8.70;;
27209;SDS011;14721;42.668;23.386;2023-04-08T05:08:54;18.07;;;9.23;;
27209;SDS011;14721;42.668;23.386;2023-04-08T05:11:19;17.23;;;9.53;;
27209;SDS011;14721;42.668;23.386;2023-04-08T05:13:46;18.10;;;8.50;;
27209;SDS011;14721;42.668;23.386;2023-04-08T05:16:11;13.60;;;8.83;;
27209;SDS011;14721;42.668;23.386;2023-04-08T05:18:37;14.37;;;8.23;;
27209;SDS011;14721;42.668;23.386;2023-04-08T05:21:03;15.73;;;8.23;;
27209;SDS011;14721;42.668;23.386;2023-04-08T05:23:31;13.83;;;8.67;;
27209;SDS011;14721;42.668;23.386;2023-04-08T05:25:56;16.03;;;9.03;;
27209;SDS011;14721;42.668;23.386;2023-04-08T05:28:22;18.13;;;10.30;;
27209;SDS011;14721;42.668;23.386;2023-04-08T05:30:50;20.13;;;10.50;;
27209;SDS011;14721;42.668;23.386;2023-04-08T05:33:16;20.33;;;9.67;;
27209;SDS011;14721;42.668;23.386;2023-04-08T05:35:42;18.47;;;10.37;;
27209;SDS011;14721;42.668;23.386;2023-04-08T05:38:10;15.47;;;8.60;;
27209;SDS011;14721;42.668;23.386;2023-04-08T05:40:36;17.47;;;9.37;;
27209;SDS011;14721;42.668;23.386;2023-04-08T05:43:02;16.43;;;8.87;;
27209;SDS011;14721;42.668;23.386;2023-04-08T05:45:30;18.77;;;8.93;;
27209;SDS011;14721;42.668;23.386;2023-04-08T05:47:56;16.83;;;9.00;;
27209;SDS011;14721;42.668;23.386;2023-04-08T05:50:22;21.50;;;10.00;;
27209;SDS011;14721;42.668;23.386;2023-04-08T05:52:47;17.07;;;9.60;;
27209;SDS011;14721;42.668;23.386;2023-04-08T05:55:13;19.37;;;9.60;;
27209;SDS011;14721;42.668;23.386;2023-04-08T05:57:39;15.83;;;9.17;;
27209;SDS011;14721;42.668;23.386;2023-04-08T06:00:09;14.67;;;9.57;;
27209;SDS011;14721;42.668;23.386;2023-04-08T06:02:35;16.73;;;8.60;;
27209;SDS011;14721;42.668;23.386;2023-04-08T06:05:05;14.63;;;9.83;;
27209;SDS011;14721;42.668;23.386;2023-04-08T06:07:31;16.53;;;8.87;;
27209;SDS011;14721;42.668;23.386;2023-04-08T06:09:58;16.10;;;9.93;;
27209;SDS011;14721;42.668;23.386;2023-04-08T06:12:23;16.17;;;9.43;;
27209;SDS011;14721;42.668;23.386;2023-04-08T06:14:52;16.90;;;10.07;;
27209;SDS011;14721;42.668;23.386;2023-04-08T06:17:19;19.03;;;9.80;;
27209;SDS011;14721;42.668;23.386;2023-04-08T06:19:45;25.70;;;10.43;;
27209;SDS011;14721;42.668;23.386;2023-04-08T06:22:10;23.47;;;11.37;;
27209;SDS011;14721;42.668;23.386;2023-04-08T06:24:36;19.97;;;10.27;;
27209;SDS011;14721;42.668;23.386;2023-04-08T06:27:01;18.13;;;10.30;;
27209;SDS011;14721;42.668;23.386;2023-04-08T06:29:27;17.93;;;9.67;;
27209;SDS011;14721;42.668;23.386;2023-04-08T06:31:56;17.93;;;10.20;;
27209;SDS011;14721;42.668;23.386;2023-04-08T06:34:22;21.30;;;10.87;;
27209;SDS011;14721;42.668;23.386;2023-04-08T06:36:47;18.73;;;11.37;;
27209;SDS011;14721;42.668;23.386;2023-04-08T06:39:17;21.00;;;11.20;;
27209;SDS011;14721;42.668;23.386;2023-04-08T06:41:44;19.30;;;10.27;;
27209;SDS011;14721;42.668;23.386;2023-04-08T06:44:16;21.53;;;11.83;;
27209;SDS011;14721;42.668;23.386;2023-04-08T06:46:41;25.47;;;11.97;;
27209;SDS011;14721;42.668;23.386;2023-04-08T06:49:07;19.03;;;10.57;;
27209;SDS011;14721;42.668;23.386;2023-04-08T06:51:33;18.73;;;10.27;;
27209;SDS011;14721;42.668;23.386;2023-04-08T06:54:03;19.73;;;10.90;;
27209;SDS011;14721;42.668;23.386;2023-04-08T06:59:18;16.67;;;10.20;;
27209;SDS011;14721;42.668;23.386;2023-04-08T07:01:48;21.27;;;10.97;;
27209;SDS011;14721;42.668;23.386;2023-04-08T07:04:23;16.17;;;8.20;;
27209;SDS011;14721;42.668;23.386;2023-04-08T07:06:48;16.40;;;9.23;;
27209;SDS011;14721;42.668;23.386;2023-04-08T07:09:16;14.93;;;9.47;;
27209;SDS011;14721;42.668;23.386;2023-04-08T07:11:42;15.23;;;9.27;;
27209;SDS011;14721;42.668;23.386;2023-04-08T07:14:15;17.50;;;9.33;;
27209;SDS011;14721;42.668;23.386;2023-04-08T07:16:43;18.27;;;9.83;;
27209;SDS011;14721;42.668;23.386;2023-04-08T07:19:11;18.07;;;8.97;;
27209;SDS011;14721;42.668;23.386;2023-04-08T07:21:36;19.97;;;9.00;;
27209;SDS011;14721;42.668;23.386;2023-04-08T07:24:02;15.87;;;9.67;;
27209;SDS011;14721;42.668;23.386;2023-04-08T07:26:28;13.67;;;8.47;;
27209;SDS011;14721;42.668;23.386;2023-04-08T07:28:53;18.23;;;9.60;;
27209;SDS011;14721;42.668;23.386;2023-04-08T07:31:19;17.87;;;9.20;;
27209;SDS011;14721;42.668;23.386;2023-04-08T07:33:44;15.40;;;9.10;;
27209;SDS011;14721;42.668;23.386;2023-04-08T07:36:11;16.63;;;8.87;;
27209;SDS011;14721;42.668;23.386;2023-04-08T07:38:42;15.63;;;8.33;;
27209;SDS011;14721;42.668;23.386;2023-04-08T07:41:10;13.70;;;8.27;;
27209;SDS011;14721;42.668;23.386;2023-04-08T07:43:35;15.80;;;10.07;;
27209;SDS011;14721;42.668;23.386;2023-04-08T07:46:01;20.07;;;9.53;;
27209;SDS011;14721;42.668;23.386;2023-04-08T07:48:30;16.90;;;8.80;;
27209;SDS011;14721;42.668;23.386;2023-04-08T07:50:56;15.17;;;8.73;;
27209;SDS011;14721;42.668;23.386;2023-04-08T07:53:22;18.93;;;9.73;;
27209;SDS011;14721;42.668;23.386;2023-04-08T07:55:51;14.23;;;8.77;;
27209;SDS011;14721;42.668;23.386;2023-04-08T07:58:18;17.30;;;8.17;;
27209;SDS011;14721;42.668;23.386;2023-04-08T08:00:44;17.57;;;9.50;;
27209;SDS011;14721;42.668;23.386;2023-04-08T08:03:09;16.43;;;8.50;;
27209;SDS011;14721;42.668;23.386;2023-04-08T08:05:35;15.13;;;8.07;;
27209;SDS011;14721;42.668;23.386;2023-04-08T08:08:03;14.40;;;8.40;;
27209;SDS011;14721;42.668;23.386;2023-04-08T08:10:34;17.20;;;9.67;;
27209;SDS011;14721;42.668;23.386;2023-04-08T08:13:00;16.80;;;9.47;;
27209;SDS011;14721;42.668;23.386;2023-04-08T08:15:25;14.17;;;9.43;;
27209;SDS011;14721;42.668;23.386;2023-04-08T08:17:50;17.27;;;9.60;;
27209;SDS011;14721;42.668;23.386;2023-04-08T08:20:16;16.17;;;9.07;;
27209;SDS011;14721;42.668;23.386;2023-04-08T08:22:41;22.83;;;10.23;;
27209;SDS011;14721;42.668;23.386;2023-04-08T08:25:09;17.10;;;9.57;;
27209;SDS011;14721;42.668;23.386;2023-04-08T08:27:35;18.37;;;10.20;;
27209;SDS011;14721;42.668;23.386;2023-04-08T08:30:01;15.40;;;8.87;;
27209;SDS011;14721;42.668;23.386;2023-04-08T08:32:29;13.37;;;7.50;;
27209;SDS011;14721;42.668;23.386;2023-04-08T08:34:55;18.90;;;9.63;;
27209;SDS011;14721;42.668;23.386;2023-04-08T08:37:21;18.27;;;10.30;;
27209;SDS011;14721;42.668;23.386;2023-04-08T08:42:51;18.13;;;9.23;;
27209;SDS011;14721;42.668;23.386;2023-04-08T08:45:23;19.13;;;11.03;;
27209;SDS011;14721;42.668;23.386;2023-04-08T08:47:48;19.23;;;9.87;;
27209;SDS011;14721;42.668;23.386;2023-04-08T08:50:15;19.73;;;10.47;;
27209;SDS011;14721;42.668;23.386;2023-04-08T08:52:46;17.13;;;9.10;;
27209;SDS011;14721;42.668;23.386;2023-04-08T08:55:32;20.17;;;10.43;;
27209;SDS011;14721;42.668;23.386;2023-04-08T08:57:58;16.60;;;9.73;;
27209;SDS011;14721;42.668;23.386;2023-04-08T09:00:38;23.20;;;10.30;;
27209;SDS011;14721;42.668;23.386;2023-04-08T09:05:48;20.87;;;9.50;;
27209;SDS011;14721;42.668;23.386;2023-04-08T09:08:31;18.20;;;9.10;;
27209;SDS011;14721;42.668;23.386;2023-04-08T09:11:14;25.27;;;10.47;;
27209;SDS011;14721;42.668;23.386;2023-04-08T09:13:41;20.23;;;10.43;;
27209;SDS011;14721;42.668;23.386;2023-04-08T09:16:09;19.93;;;9.70;;
27209;SDS011;14721;42.668;23.386;2023-04-08T09:18:36;20.33;;;10.90;;
27209;SDS011;14721;42.668;23.386;2023-04-08T09:21:02;20.10;;;10.00;;
27209;SDS011;14721;42.668;23.386;2023-04-08T09:26:11;15.37;;;8.73;;
27209;SDS011;14721;42.668;23.386;2023-04-08T09:28:41;17.93;;;9.13;;
27209;SDS011;14721;42.668;23.386;2023-04-08T09:31:17;18.43;;;9.70;;
27209;SDS011;14721;42.668;23.386;2023-04-08T09:33:45;21.67;;;10.73;;
27209;SDS011;14721;42.668;23.386;2023-04-08T09:36:12;18.73;;;8.73;;
27209;SDS011;14721;42.668;23.386;2023-04-08T09:38:38;18.67;;;10.40;;
27209;SDS011;14721;42.668;23.386;2023-04-08T09:41:06;23.73;;;10.20;;
27209;SDS011;14721;42.668;23.386;2023-04-08T09:43:34;17.63;;;8.60;;
27209;SDS011;14721;42.668;23.386;2023-04-08T09:46:04;18.53;;;9.50;;
27209;SDS011;14721;42.668;23.386;2023-04-08T09:48:36;21.93;;;10.77;;
27209;SDS011;14721;42.668;23.386;2023-04-08T09:51:07;16.07;;;9.00;;
27209;SDS011;14721;42.668;23.386;2023-04-08T09:53:37;20.87;;;10.80;;
27209;SDS011;14721;42.668;23.386;2023-04-08T09:56:07;14.57;;;8.17;;
27209;SDS011;14721;42.668;23.386;2023-04-08T10:01:25;17.17;;;9.10;;
27209;SDS011;14721;42.668;23.386;2023-04-08T10:03:56;19.13;;;9.13;;
27209;SDS011;14721;42.668;23.386;2023-04-08T10:06:26;20.30;;;8.87;;
27209;SDS011;14721;42.668;23.386;2023-04-08T10:08:54;16.00;;;8.07;;
27209;SDS011;14721;42.668;23.386;2023-04-08T10:11:20;19.33;;;9.47;;
27209;SDS011;14721;42.668;23.386;2023-04-08T10:13:46;17.70;;;8.43;;
27209;SDS011;14721;42.668;23.386;2023-04-08T10:18:41;19.20;;;10.03;;
27209;SDS011;14721;42.668;23.386;2023-04-08T10:23:56;17.30;;;7.90;;
27209;SDS011;14721;42.668;23.386;2023-04-08T10:26:40;17.03;;;8.73;;
27209;SDS011;14721;42.668;23.386;2023-04-08T10:31:47;24.40;;;9.23;;
27209;SDS011;14721;42.668;23.386;2023-04-08T10:36:45;21.57;;;8.70;;
27209;SDS011;14721;42.668;23.386;2023-04-08T10:39:14;16.27;;;8.67;;
27209;SDS011;14721;42.668;23.386;2023-04-08T10:41:47;17.47;;;8.83;;
27209;SDS011;14721;42.668;23.386;2023-04-08T10:44:24;15.53;;;8.90;;
27209;SDS011;14721;42.668;23.386;2023-04-08T10:46:53;16.47;;;9.03;;
27209;SDS011;14721;42.668;23.386;2023-04-08T10:49:19;17.90;;;8.13;;
27209;SDS011;14721;42.668;23.386;2023-04-08T10:51:46;18.13;;;9.50;;
27209;SDS011;14721;42.668;23.386;2023-04-08T10:54:12;16.13;;;9.03;;
27209;SDS011;14721;42.668;23.386;2023-04-08T10:56:44;18.33;;;8.13;;
27209;SDS011;14721;42.668;23.386;2023-04-08T10:59:26;14.27;;;8.00;;
27209;SDS011;14721;42.668;23.386;2023-04-08T11:01:56;13.77;;;7.40;;
27209;SDS011;14721;42.668;23.386;2023-04-08T11:04:22;17.57;;;8.53;;
27209;SDS011;14721;42.668;23.386;2023-04-08T11:06:49;13.37;;;7.43;;
27209;SDS011;14721;42.668;23.386;2023-04-08T11:09:18;18.57;;;9.03;;
27209;SDS011;14721;42.668;23.386;2023-04-08T11:11:45;15.43;;;8.33;;
27209;SDS011;14721;42.668;23.386;2023-04-08T11:14:14;17.93;;;7.80;;
27209;SDS011;14721;42.668;23.386;2023-04-08T11:16:48;24.93;;;7.50;;
27209;SDS011;14721;42.668;23.386;2023-04-08T11:19:13;17.53;;;8.20;;
27209;SDS011;14721;42.668;23.386;2023-04-08T11:21:39;12.83;;;7.00;;
27209;SDS011;14721;42.668;23.386;2023-04-08T11:24:05;17.40;;;7.27;;
27209;SDS011;14721;42.668;23.386;2023-04-08T11:26:36;13.60;;;7.57;;
27209;SDS011;14721;42.668;23.386;2023-04-08T11:29:02;12.27;;;7.47;;
27209;SDS011;14721;42.668;23.386;2023-04-08T11:31:31;12.93;;;7.37;;
27209;SDS011;14721;42.668;23.386;2023-04-08T11:33:58;15.37;;;7.53;;
27209;SDS011;14721;42.668;23.386;2023-04-08T11:36:23;13.67;;;7.80;;
27209;SDS011;14721;42.668;23.386;2023-04-08T11:38:52;16.60;;;7.77;;
27209;SDS011;14721;42.668;23.386;2023-04-08T11:41:18;17.57;;;6.77;;
27209;SDS011;14721;42.668;23.386;2023-04-08T11:43:50;15.17;;;7.67;;
27209;SDS011;14721;42.668;23.386;2023-04-08T11:46:17;16.63;;;6.73;;
27209;SDS011;14721;42.668;23.386;2023-04-08T11:48:59;13.77;;;7.50;;
27209;SDS011;14721;42.668;23.386;2023-04-08T11:51:32;10.33;;;5.80;;
27209;SDS011;14721;42.668;23.386;2023-04-08T11:54:13;10.57;;;5.67;;
27209;SDS011;14721;42.668;23.386;2023-04-08T11:56:51;14.37;;;7.60;;
27209;SDS011;14721;42.668;23.386;2023-04-08T11:59:17;11.83;;;5.87;;
27209;SDS011;14721;42.668;23.386;2023-04-08T12:01:48;14.10;;;7.10;;
27209;SDS011;14721;42.668;23.386;2023-04-08T12:04:15;14.27;;;5.87;;
27209;SDS011;14721;42.668;23.386;2023-04-08T12:06:42;12.50;;;6.27;;
27209;SDS011;14721;42.668;23.386;2023-04-08T12:09:11;11.17;;;5.30;;
27209;SDS011;14721;42.668;23.386;2023-04-08T12:11:39;8.43;;;5.27;;
27209;SDS011;14721;42.668;23.386;2023-04-08T12:14:06;9.47;;;5.53;;
27209;SDS011;14721;42.668;23.386;2023-04-08T12:16:31;8.03;;;5.00;;
27209;SDS011;14721;42.668;23.386;2023-04-08T12:18:57;9.77;;;4.90;;
27209;SDS011;14721;42.668;23.386;2023-04-08T12:21:22;8.30;;;4.23;;
27209;SDS011;14721;42.668;23.386;2023-04-08T12:23:47;10.00;;;4.43;;
27209;SDS011;14721;42.668;23.386;2023-04-08T12:26:13;10.00;;;6.40;;
27209;SDS011;14721;42.668;23.386;2023-04-08T12:28:38;8.43;;;4.73;;
27209;SDS011;14721;42.668;23.386;2023-04-08T12:31:04;9.70;;;5.90;;
27209;SDS011;14721;42.668;23.386;2023-04-08T12:33:31;11.60;;;6.17;;
27209;SDS011;14721;42.668;23.386;2023-04-08T12:35:56;9.87;;;5.90;;
27209;SDS011;14721;42.668;23.386;2023-04-08T12:38:23;8.17;;;4.53;;
27209;SDS011;14721;42.668;23.386;2023-04-08T12:40:51;8.07;;;4.10;;
27209;SDS011;14721;42.668;23.386;2023-04-08T12:43:17;9.47;;;4.53;;
27209;SDS011;14721;42.668;23.386;2023-04-08T12:45:42;8.40;;;4.63;;
27209;SDS011;14721;42.668;23.386;2023-04-08T12:48:08;10.07;;;5.30;;
27209;SDS011;14721;42.668;23.386;2023-04-08T12:50:33;8.97;;;5.13;;
27209;SDS011;14721;42.668;23.386;2023-04-08T12:52:59;8.37;;;4.60;;
27209;SDS011;14721;42.668;23.386;2023-04-08T12:55:25;9.43;;;5.50;;
27209;SDS011;14721;42.668;23.386;2023-04-08T12:57:50;9.43;;;5.37;;
27209;SDS011;14721;42.668;23.386;2023-04-08T13:00:16;9.73;;;4.80;;
27209;SDS011;14721;42.668;23.386;2023-04-08T13:02:45;8.67;;;4.83;;
27209;SDS011;14721;42.668;23.386;2023-04-08T13:05:11;9.20;;;5.37;;
27209;SDS011;14721;42.668;23.386;2023-04-08T13:07:37;10.13;;;5.77;;
27209;SDS011;14721;42.668;23.386;2023-04-08T13:10:02;11.77;;;5.83;;
27209;SDS011;14721;42.668;23.386;2023-04-08T13:12:28;8.47;;;4.70;;
27209;SDS011;14721;42.668;23.386;2023-04-08T13:14:54;9.67;;;5.40;;
27209;SDS011;14721;42.668;23.386;2023-04-08T13:17:20;7.00;;;4.57;;
27209;SDS011;14721;42.668;23.386;2023-04-08T13:19:45;10.07;;;5.07;;
27209;SDS011;14721;42.668;23.386;2023-04-08T13:22:14;9.00;;;5.33;;
27209;SDS011;14721;42.668;23.386;2023-04-08T13:24:40;8.40;;;4.77;;
27209;SDS011;14721;42.668;23.386;2023-04-08T13:27:08;8.43;;;5.50;;
27209;SDS011;14721;42.668;23.386;2023-04-08T13:29:34;12.17;;;5.60;;
27209;SDS011;14721;42.668;23.386;2023-04-08T13:32:00;8.73;;;4.80;;
27209;SDS011;14721;42.668;23.386;2023-04-08T13:34:25;9.37;;;5.40;;
27209;SDS011;14721;42.668;23.386;2023-04-08T13:36:51;10.40;;;6.00;;
27209;SDS011;14721;42.668;23.386;2023-04-08T13:39:17;9.70;;;5.53;;
27209;SDS011;14721;42.668;23.386;2023-04-08T13:41:42;11.00;;;5.50;;
27209;SDS011;14721;42.668;23.386;2023-04-08T13:44:08;8.37;;;5.43;;
27209;SDS011;14721;42.668;23.386;2023-04-08T13:46:34;11.07;;;5.93;;
27209;SDS011;14721;42.668;23.386;2023-04-08T13:49:00;9.57;;;5.60;;
27209;SDS011;14721;42.668;23.386;2023-04-08T13:51:27;9.03;;;5.40;;
27209;SDS011;14721;42.668;23.386;2023-04-08T13:53:53;9.27;;;6.00;;
27209;SDS011;14721;42.668;23.386;2023-04-08T13:56:18;9.83;;;5.93;;
27209;SDS011;14721;42.668;23.386;2023-04-08T13:59:02;13.70;;;8.57;;
27209;SDS011;14721;42.668;23.386;2023-04-08T14:01:27;13.37;;;6.27;;
27209;SDS011;14721;42.668;23.386;2023-04-08T14:03:53;10.93;;;6.60;;
27209;SDS011;14721;42.668;23.386;2023-04-08T14:06:18;12.87;;;6.10;;
27209;SDS011;14721;42.668;23.386;2023-04-08T14:08:44;13.10;;;7.20;;
27209;SDS011;14721;42.668;23.386;2023-04-08T14:11:09;13.23;;;6.90;;
27209;SDS011;14721;42.668;23.386;2023-04-08T14:13:35;9.63;;;6.53;;
27209;SDS011;14721;42.668;23.386;2023-04-08T14:16:00;19.07;;;7.33;;
27209;SDS011;14721;42.668;23.386;2023-04-08T14:18:27;12.83;;;7.07;;
27209;SDS011;14721;42.668;23.386;2023-04-08T14:20:55;15.60;;;8.30;;
27209;SDS011;14721;42.668;23.386;2023-04-08T14:23:21;16.73;;;6.87;;
27209;SDS011;14721;42.668;23.386;2023-04-08T14:25:46;13.67;;;7.73;;
27209;SDS011;14721;42.668;23.386;2023-04-08T14:28:12;15.30;;;7.43;;
27209;SDS011;14721;42.668;23.386;2023-04-08T14:30:37;14.13;;;7.83;;
27209;SDS011;14721;42.668;23.386;2023-04-08T14:33:03;11.93;;;7.67;;
27209;SDS011;14721;42.668;23.386;2023-04-08T14:35:29;15.70;;;8.67;;
27209;SDS011;14721;42.668;23.386;2023-04-08T14:37:55;14.77;;;8.93;;
27209;SDS011;14721;42.668;23.386;2023-04-08T14:40:20;16.90;;;9.37;;
27209;SDS011;14721;42.668;23.386;2023-04-08T14:42:46;18.57;;;9.33;;
27209;SDS011;14721;42.668;23.386;2023-04-08T14:45:14;16.80;;;10.17;;
27209;SDS011;14721;42.668;23.386;2023-04-08T14:47:39;16.57;;;9.73;;